Dades meteomassalio
Diari Summary for Febrer 26, 2017 Units:  Metric    English   Both
« Previous Day
Next Day »
Diari Semanal Mensual Anual Personalitzat
  Maxima: Minima: Mijana:
Temperatura: -17.8 °C -17.8 °C -13.5 °C
Rosada: -17.8 °C -18.4 °C -16.2 °C
Humitat: Humidity % 42 % 74 %
Velocitat del vent: 0 km/h 0 km/h 2.1 km/h
Racha vent: 0 km/h - -
Vent:- - East
Pressio: 0 hPa 34486.4 hPa -
Pluja: 0 mm    
Historical Graphs
 
 
Tabular Data for Febrer 26, 2017
Time Temperature Dew Point Pressure Wind Wind Speed Wind Gust Humidity Rainfall Rate (Hourly) solar Conditions
-17.8 °C -17.8 °C 0 hPa Calm     Humidity % 0 mm SolarRadiationWatts/m^2 W/m2 Conditions
00:01 -16 °C -17 °C 34611.7 hPa Calm     88 % 0 mm 0.0 W/m2 CLR
00:06 -16 °C -17 °C 34611.7 hPa Calm     88 % 0 mm 0.0 W/m2 CLR
00:11 -16.1 °C -17.1 °C 34611.7 hPa Calm     88 % 0 mm 0.0 W/m2 CLR
00:17 -16.2 °C -17.1 °C 34611.7 hPa Calm     88 % 0 mm 0.0 W/m2 CLR
00:22 -16.2 °C -17.2 °C 34611.7 hPa Calm     88 % 0 mm 0.0 W/m2 CLR
00:27 -16.3 °C -17.3 °C 34611.7 hPa Calm     88 % 0 mm 0.0 W/m2 CLR
00:32 -16.3 °C -17.3 °C 34611.7 hPa Calm     88 % 0 mm 0.0 W/m2 CLR
00:37 -16.3 °C -17.3 °C 34611.7 hPa Calm     89 % 0 mm 0.0 W/m2 CLR
00:42 -16.4 °C -17.3 °C 34625.2 hPa Calm     89 % 0 mm 0.0 W/m2 CLR
00:47 -16.4 °C -17.3 °C 34625.2 hPa Calm     89 % 0 mm 0.0 W/m2 CLR
00:52 -16.5 °C -17.4 °C 34625.2 hPa Calm     89 % 0 mm 0.0 W/m2 CLR
00:57 -16.5 °C -17.4 °C 34625.2 hPa Calm     89 % 0 mm 0.0 W/m2 CLR
01:02 -16.6 °C -17.4 °C 34625.2 hPa Calm     89 % 0 mm 0.0 W/m2 CLR
01:07 -16.6 °C -17.3 °C 34625.2 hPa Calm     90 % 0 mm 0.0 W/m2 CLR
01:12 -16.6 °C -17.3 °C 34625.2 hPa SW 9 km/h 9 km/h 90 % 0 mm 0.0 W/m2 CLR
01:17 -16.5 °C -17.3 °C 34625.2 hPa SW 9 km/h 9 km/h 90 % 0 mm 0.0 W/m2 CLR
01:22 -16.5 °C -17.3 °C 34625.2 hPa Calm     90 % 0 mm 0.0 W/m2 CLR
01:27 -16.5 °C -17.3 °C 34625.2 hPa Calm     90 % 0 mm 0.0 W/m2 CLR
01:32 -16.5 °C -17.3 °C 34625.2 hPa Calm     90 % 0 mm 0.0 W/m2 CLR
01:37 -16.6 °C -17.4 °C 34625.2 hPa Calm     90 % 0 mm 0.0 W/m2 CLR
01:42 -16.6 °C -17.4 °C 34625.2 hPa Calm     90 % 0 mm 0.0 W/m2 CLR
01:47 -16.7 °C -17.5 °C 34625.2 hPa Calm     90 % 0 mm 0.0 W/m2 CLR
01:52 -16.7 °C -17.5 °C 34625.2 hPa Calm     90 % 0 mm 0.0 W/m2 CLR
01:57 -16.7 °C -17.6 °C 34635.4 hPa Calm     90 % 0 mm 0.0 W/m2 CLR
02:02 -16.7 °C -17.6 °C 34635.4 hPa Calm     90 % 0 mm 0.0 W/m2 CLR
02:07 -16.7 °C -17.6 °C 34635.4 hPa Calm     90 % 0 mm 0.0 W/m2 CLR
02:12 -16.8 °C -17.6 °C 34635.4 hPa Calm     90 % 0 mm 0.0 W/m2 CLR
02:17 -16.8 °C -17.6 °C 34625.2 hPa Calm     91 % 0 mm 0.0 W/m2 CLR
02:22 -16.8 °C -17.6 °C 34625.2 hPa Calm     91 % 0 mm 0.0 W/m2 CLR
02:27 -16.8 °C -17.6 °C 34625.2 hPa Calm     91 % 0 mm 0.0 W/m2 CLR
02:32 -16.8 °C -17.6 °C 34625.2 hPa Calm     91 % 0 mm 0.0 W/m2 CLR
02:37 -16.9 °C -17.7 °C 34625.2 hPa Calm     90 % 0 mm 0.0 W/m2 CLR
02:42 -17 °C -17.8 °C 34625.2 hPa Calm     90 % 0 mm 0.0 W/m2 CLR
02:47 -17 °C -17.7 °C 34625.2 hPa Calm     91 % 0 mm 0.0 W/m2 CLR
02:49 -17.1 °C -17.8 °C 34625.2 hPa Calm     91 % 0 mm 0.0 W/m2 CLR
02:54 -17.1 °C -17.8 °C 34625.2 hPa Calm     91 % 0 mm 0.0 W/m2 CLR
02:59 -17.1 °C -17.8 °C 34625.2 hPa Calm     91 % 0 mm 0.0 W/m2 CLR
03:04 -17.1 °C -17.8 °C 34625.2 hPa Calm     91 % 0 mm 0.0 W/m2 CLR
03:09 -17.1 °C -17.9 °C 34625.2 hPa Calm     91 % 0 mm 0.0 W/m2 CLR
03:14 -17.2 °C -17.9 °C 34625.2 hPa Calm     91 % 0 mm 0.0 W/m2 CLR
03:19 -17.2 °C -17.9 °C 34625.2 hPa Calm     91 % 0 mm 0.0 W/m2 CLR
03:24 -17.2 °C -17.9 °C 34625.2 hPa Calm     91 % 0 mm 0.0 W/m2 CLR
03:29 -17.2 °C -17.8 °C 34625.2 hPa Calm     92 % 0 mm 0.0 W/m2 CLR
03:34 -17.2 °C -17.8 °C 34625.2 hPa Calm     92 % 0 mm 0.0 W/m2 CLR
03:39 -17.2 °C -17.8 °C 34625.2 hPa Calm     92 % 0 mm 0.0 W/m2 CLR
03:44 -17.1 °C -17.8 °C 34625.2 hPa Calm     92 % 0 mm 0.0 W/m2 CLR
03:49 -17.2 °C -17.8 °C 34625.2 hPa Calm     92 % 0 mm 0.0 W/m2 CLR
03:54 -17.3 °C -18 °C 34625.2 hPa Calm     91 % 0 mm 0.0 W/m2 CLR
03:59 -17.3 °C -18 °C 34625.2 hPa Calm     92 % 0 mm 0.0 W/m2 CLR
04:04 -17.4 °C -18 °C 34625.2 hPa Calm     92 % 0 mm 0.0 W/m2 CLR
04:09 -17.4 °C -18.1 °C 34611.7 hPa Calm     92 % 0 mm 0.0 W/m2 CLR
04:14 -17.4 °C -18.2 °C 34625.2 hPa Calm     91 % 0 mm 0.0 W/m2 CLR
04:19 -17.5 °C -18.2 °C 34611.7 hPa Calm     91 % 0 mm 0.0 W/m2 CLR
04:24 -17.5 °C -18.2 °C 34625.2 hPa Calm     92 % 0 mm 0.0 W/m2 CLR
04:29 -17.5 °C -18.2 °C 34625.2 hPa Calm     92 % 0 mm 0.0 W/m2 CLR
04:34 -17.4 °C -18.1 °C 34625.2 hPa Calm     92 % 0 mm 0.0 W/m2 CLR
04:39 -17.5 °C -18.2 °C 34625.2 hPa Calm     92 % 0 mm 0.0 W/m2 CLR
04:44 -17.6 °C -18.2 °C 34625.2 hPa Calm     92 % 0 mm 0.0 W/m2 CLR
04:49 -17.6 °C -18.2 °C 34625.2 hPa Calm     92 % 0 mm 0.0 W/m2 CLR
04:54 -17.6 °C -18.2 °C 34625.2 hPa Calm     92 % 0 mm 0.0 W/m2 CLR
04:59 -17.6 °C -18.2 °C 34625.2 hPa Calm     92 % 0 mm 0.0 W/m2 CLR
05:04 -17.6 °C -18.2 °C 34625.2 hPa Calm     92 % 0 mm 0.0 W/m2 CLR
05:09 -17.6 °C -18.2 °C 34625.2 hPa Calm     92 % 0 mm 0.0 W/m2 CLR
05:14 -17.6 °C -18.2 °C 34625.2 hPa Calm     92 % 0 mm 0.0 W/m2 CLR
05:19 -17.7 °C -18.3 °C 34625.2 hPa Calm     92 % 0 mm 0.0 W/m2 CLR
05:24 -17.7 °C -18.3 °C 34635.4 hPa Calm     92 % 0 mm 0.0 W/m2 CLR
05:29 -17.6 °C -18.3 °C 34625.2 hPa Calm     92 % 0 mm 0.0 W/m2 CLR
05:34 -17.6 °C -18.3 °C 34635.4 hPa Calm     92 % 0 mm 0.0 W/m2 CLR
05:39 -17.6 °C -18.1 °C 34635.4 hPa Calm     93 % 0 mm 0.0 W/m2 CLR
05:44 -17.6 °C -18.1 °C 34635.4 hPa Calm     93 % 0 mm 0.0 W/m2 CLR
05:49 -17.5 °C -18.1 °C 34635.4 hPa Calm     93 % 0 mm 0.0 W/m2 CLR
05:54 -17.4 °C -18 °C 34635.4 hPa Calm     93 % 0 mm 0.0 W/m2 CLR
05:59 -17.4 °C -18 °C 34635.4 hPa Calm     93 % 0 mm 0.0 W/m2 CLR
06:05 -17.4 °C -17.9 °C 34635.4 hPa Calm     93 % 0 mm 0.0 W/m2 CLR
06:10 -17.4 °C -17.9 °C 34635.4 hPa Calm     93 % 0 mm 0.0 W/m2 CLR
06:15 -17.4 °C -17.9 °C 34635.4 hPa Calm     93 % 0 mm 0.0 W/m2 CLR
06:20 -17.4 °C -17.9 °C 34645.6 hPa Calm     93 % 0 mm 0.0 W/m2 CLR
06:25 -17.4 °C -18 °C 34645.6 hPa Calm     93 % 0 mm 0.0 W/m2 CLR
06:30 -17.6 °C -18.2 °C 34645.6 hPa Calm     92 % 0 mm 0.0 W/m2 CLR
06:35 -17.6 °C -18.2 °C 34645.6 hPa Calm     92 % 0 mm 0.0 W/m2 CLR
06:40 -17.7 °C -18.3 °C 34645.6 hPa Calm     92 % 0 mm 0.0 W/m2 CLR
06:45 -17.7 °C -18.3 °C 34645.6 hPa Calm     92 % 0 mm 0.0 W/m2 CLR
06:50 -17.7 °C -18.3 °C 34645.6 hPa Calm     93 % 0 mm 0.0 W/m2 CLR
06:55 -17.7 °C -18.3 °C 34645.6 hPa Calm     93 % 0 mm 0.0 W/m2 CLR
07:00 -17.7 °C -18.3 °C 34645.6 hPa Calm     93 % 0 mm 0.0 W/m2 CLR
07:05 -17.7 °C -18.3 °C 34645.6 hPa Calm     93 % 0 mm 0.0 W/m2 CLR
07:10 -17.8 °C -18.3 °C 34645.6 hPa Calm     93 % 0 mm 0.0 W/m2 CLR
07:15 -17.8 °C -18.3 °C 34645.6 hPa SW 7.7 km/h 7.7 km/h 93 % 0 mm 0.0 W/m2 CLR
07:20 -17.7 °C -18.2 °C 34645.6 hPa SW 9 km/h 9 km/h 93 % 0 mm 0.0 W/m2 CLR
07:25 -17.6 °C -18.2 °C 34645.6 hPa Calm     93 % 0 mm 0.0 W/m2 CLR
07:30 -17.7 °C -18.2 °C 34645.6 hPa Calm     93 % 0 mm 0.0 W/m2 OVC
07:35 -17.7 °C -18.3 °C 34645.6 hPa Calm     93 % 0 mm 0.0 W/m2 OVC
07:40 -17.8 °C -18.3 °C 34645.6 hPa Calm     93 % 0 mm 5.0 W/m2 OVC
07:45 -17.8 °C -18.4 °C 34645.6 hPa Calm     93 % 0 mm 9.0 W/m2 BKN
07:50 -17.8 °C -18.3 °C 34645.6 hPa Calm     93 % 0 mm 12.0 W/m2 BKN
07:55 -17.7 °C -18.3 °C 34659.1 hPa Calm     93 % 0 mm 16.0 W/m2 BKN
08:00 -17.7 °C -18.2 °C 34659.1 hPa Calm     93 % 0 mm 18.0 W/m2 BKN
08:05 -17.6 °C -18.2 °C 34659.1 hPa Calm     93 % 0 mm 23.0 W/m2 BKN
08:10 -17.6 °C -18.2 °C 34659.1 hPa Calm     93 % 0 mm 33.0 W/m2 BKN
08:15 -17.6 °C -18.1 °C 34659.1 hPa Calm     93 % 0 mm 44.0 W/m2 BKN
08:20 -17.4 °C -18 °C 34659.1 hPa Calm     93 % 0 mm 54.0 W/m2 SCT
08:25 -17.3 °C -17.9 °C 34669.3 hPa Calm     93 % 0 mm 58.0 W/m2 SCT
08:30 -17.2 °C -17.7 °C 34669.3 hPa Calm     93 % 0 mm 62.0 W/m2 SCT
08:36 -17 °C -17.6 °C 34669.3 hPa Calm     93 % 0 mm 83.0 W/m2 CLR
08:40 -16.8 °C -17.3 °C 34669.3 hPa Calm     93 % 0 mm 90.0 W/m2 FEW
08:46 -16.7 °C -17.2 °C 34669.3 hPa Calm     93 % 0 mm 109.0 W/m2 CLR
08:51 -16.6 °C -17.2 °C 34669.3 hPa Calm     92 % 0 mm 128.0 W/m2 CLR
08:56 -16.4 °C -17.1 °C 34669.3 hPa Calm     92 % 0 mm 111.0 W/m2 CLR
09:01 -16.2 °C -16.8 °C 34669.3 hPa Calm     92 % 0 mm 128.0 W/m2 CLR
09:06 -16.1 °C -16.8 °C 34669.3 hPa Calm     91 % 0 mm 192.0 W/m2 CLR
09:11 -15.8 °C -16.6 °C 34669.3 hPa Calm     91 % 0 mm 207.0 W/m2 CLR
09:16 -15.6 °C -16.4 °C 34669.3 hPa Calm     90 % 0 mm 227.0 W/m2 CLR
09:21 -15.3 °C -16.1 °C 34659.1 hPa Calm     90 % 0 mm 234.0 W/m2 CLR
09:26 -15 °C -15.9 °C 34669.3 hPa Calm     89 % 0 mm 251.0 W/m2 CLR
09:31 -14.8 °C -15.9 °C 34669.3 hPa Calm     87 % 0 mm 265.0 W/m2 CLR
09:36 -14.4 °C -15.7 °C 34669.3 hPa Calm     85 % 0 mm 285.0 W/m2 CLR
09:41 -14.3 °C -15.8 °C 34659.1 hPa Calm     82 % 0 mm 302.0 W/m2 CLR
09:46 -14.2 °C -16 °C 34659.1 hPa Calm     80 % 0 mm 316.0 W/m2 CLR
09:51 -14.1 °C -15.8 °C 34659.1 hPa Calm     81 % 0 mm 332.0 W/m2 CLR
09:56 -14 °C -15.9 °C 34659.1 hPa Calm     79 % 0 mm 345.0 W/m2 CLR
10:01 -13.8 °C -15.8 °C 34659.1 hPa Calm     78 % 0 mm 362.0 W/m2 CLR
10:06 -13.7 °C -15.6 °C 34659.1 hPa Calm     79 % 0 mm 376.0 W/m2 CLR
10:11 -13.3 °C -15.4 °C 34659.1 hPa Calm     77 % 0 mm 390.0 W/m2 CLR
10:16 -12.9 °C -15.4 °C 34659.1 hPa Calm     74 % 0 mm 403.0 W/m2 CLR
10:21 -12.7 °C -15.4 °C 34659.1 hPa Calm     71 % 0 mm 415.0 W/m2 CLR
10:26 -12.6 °C -15.5 °C 34659.1 hPa Calm     69 % 0 mm 434.0 W/m2 CLR
10:31 -12.5 °C -15.7 °C 34659.1 hPa Calm     67 % 0 mm 452.0 W/m2 CLR
10:36 -12.4 °C -15.4 °C 34659.1 hPa Calm     69 % 0 mm 469.0 W/m2 CLR
10:41 -12.3 °C -15.4 °C 34659.1 hPa Calm     69 % 0 mm 490.0 W/m2 CLR
10:46 -12.3 °C -15.4 °C 34645.6 hPa Calm     68 % 0 mm 468.0 W/m2 CLR
10:51 -12.3 °C -15.3 °C 34659.1 hPa Calm     69 % 0 mm 359.0 W/m2 CLR
10:56 -12.2 °C -15.2 °C 34659.1 hPa Calm     69 % 0 mm 541.0 W/m2 CLR
11:01 -12.2 °C -15.3 °C 34645.6 hPa Calm     68 % 0 mm 554.0 W/m2 CLR
11:06 -12 °C -15.2 °C 34645.6 hPa Calm     68 % 0 mm 559.0 W/m2 CLR
11:11 -11.8 °C -15.1 °C 34645.6 hPa NE 9 km/h 9 km/h 67 % 0 mm 406.0 W/m2 CLR
11:16 -11.8 °C -15.1 °C 34645.6 hPa Calm     67 % 0 mm 589.0 W/m2 CLR
11:21 -11.7 °C -14.9 °C 34645.6 hPa East 3.1 km/h   67 % 0 mm 483.0 W/m2 CLR
11:26 -11.6 °C -14.8 °C 34645.6 hPa Calm     67 % 0 mm 529.0 W/m2 CLR
11:31 -11.5 °C -14.9 °C 34645.6 hPa ENE 10.3 km/h 10.3 km/h 66 % 0 mm 594.0 W/m2 CLR
11:36 -11.4 °C -14.8 °C 34645.6 hPa NE 9 km/h 9 km/h 66 % 0 mm 612.0 W/m2 CLR
11:41 -11.3 °C -14.8 °C 34645.6 hPa ENE 11.9 km/h 11.9 km/h 66 % 0 mm 598.0 W/m2 CLR
11:46 -11.3 °C -14.7 °C 34645.6 hPa NE 11.9 km/h 11.9 km/h 66 % 0 mm 617.0 W/m2 CLR
11:51 -11.2 °C -14.7 °C 34635.4 hPa East 9 km/h 9 km/h 65 % 0 mm 633.0 W/m2 CLR
11:56 -11 °C -14.4 °C 34635.4 hPa ENE 10.3 km/h 10.3 km/h 66 % 0 mm 645.0 W/m2 CLR
12:01 -10.9 °C -14.5 °C 34635.4 hPa ENE 15 km/h 15 km/h 65 % 0 mm 573.0 W/m2 CLR
12:06 -10.9 °C -14.5 °C 34635.4 hPa East 10.3 km/h 10.3 km/h 65 % 0 mm 619.0 W/m2 CLR
12:11 -10.8 °C -14.4 °C 34635.4 hPa ENE 11.9 km/h 11.9 km/h 64 % 0 mm 591.0 W/m2 CLR
12:16 -10.6 °C -14.3 °C 34625.2 hPa ENE 20.9 km/h 20.9 km/h 64 % 0 mm 628.0 W/m2 CLR
12:21 -10.6 °C -14.4 °C 34625.2 hPa NE 9 km/h 9 km/h 63 % 0 mm 587.0 W/m2 CLR
12:26 -10.5 °C -14.6 °C 34625.2 hPa ENE 9 km/h 9 km/h 61 % 0 mm 566.0 W/m2 CLR
12:31 -10.6 °C -14.6 °C 34611.7 hPa ENE 9 km/h 9 km/h 61 % 0 mm 636.0 W/m2 CLR
12:36 -10.6 °C -14.6 °C 34611.7 hPa ENE 15 km/h 15 km/h 62 % 0 mm 657.0 W/m2 CLR
12:41 -10.4 °C -14.7 °C 34611.7 hPa NE 9 km/h 9 km/h 60 % 0 mm 666.0 W/m2 CLR
12:46 -10.3 °C -14.7 °C 34611.7 hPa ENE 9 km/h   59 % 0 mm 671.0 W/m2 CLR
12:51 -10.1 °C -14.5 °C 34601.5 hPa ESE 10.3 km/h 10.3 km/h 59 % 0 mm 679.0 W/m2 CLR
12:56 -10.1 °C -14.6 °C 34601.5 hPa Calm     58 % 0 mm 684.0 W/m2 CLR
13:01 -9.9 °C -14.4 °C 34601.5 hPa Calm     58 % 0 mm 680.0 W/m2 CLR
13:06 -9.7 °C -14.4 °C 34591.4 hPa Calm     57 % 0 mm 675.0 W/m2 CLR
13:11 -9.5 °C -14.6 °C 34591.4 hPa Calm     54 % 0 mm 659.0 W/m2 CLR
13:16 -9.5 °C -14.5 °C 34591.4 hPa NNE 10.3 km/h 10.9 km/h 55 % 0 mm 670.0 W/m2 CLR
13:21 -9.5 °C -14.3 °C 34591.4 hPa NNW 9 km/h 9 km/h 56 % 0 mm 654.0 W/m2 CLR
13:26 -9.4 °C -14.7 °C 34577.8 hPa NNE 11.9 km/h 11.9 km/h 53 % 0 mm 643.0 W/m2 CLR
13:31 -9.3 °C -14.5 °C 34577.8 hPa Calm     54 % 0 mm 605.0 W/m2 CLR
13:36 -9.3 °C -14.6 °C 34577.8 hPa East 9 km/h 9 km/h 53 % 0 mm 636.0 W/m2 CLR
13:41 -9.4 °C -14.8 °C 34577.8 hPa NE 6 km/h   52 % 0 mm 656.0 W/m2 CLR
13:46 -9.3 °C -14.6 °C 34577.8 hPa Calm     53 % 0 mm 649.0 W/m2 CLR
13:51 -9.2 °C -14.3 °C 34567.7 hPa NE 7.7 km/h 7.7 km/h 54 % 0 mm 640.0 W/m2 CLR
13:56 -9.1 °C -14.6 °C 34567.7 hPa NE 9 km/h 9 km/h 52 % 0 mm 636.0 W/m2 CLR
14:01 -9.2 °C -14.5 °C 34567.7 hPa NNW 9 km/h 9 km/h 53 % 0 mm 631.0 W/m2 CLR
14:06 -9.2 °C -14.5 °C 34554.1 hPa NE 17.9 km/h 17.9 km/h 53 % 0 mm 628.0 W/m2 CLR
14:11 -9.1 °C -14.6 °C 34554.1 hPa ENE 17.9 km/h 17.9 km/h 52 % 0 mm 622.0 W/m2 CLR
14:16 -9.1 °C -14.4 °C 34554.1 hPa NE 9 km/h 9 km/h 53 % 0 mm 621.0 W/m2 CLR
14:21 -9 °C -14.5 °C 34554.1 hPa NE 15 km/h 15 km/h 52 % 0 mm 613.0 W/m2 CLR
14:26 -9 °C -14.6 °C 34544 hPa ENE 11.9 km/h 11.9 km/h 51 % 0 mm 606.0 W/m2 CLR
14:31 -9 °C -14.8 °C 34544 hPa Calm     50 % 0 mm 601.0 W/m2 CLR
14:36 -8.8 °C -14.7 °C 34544 hPa Calm     50 % 0 mm 596.0 W/m2 CLR
14:41 -8.8 °C -14.7 °C 34544 hPa NE 10.3 km/h 10.3 km/h 49 % 0 mm 589.0 W/m2 CLR
14:46 -8.8 °C -14.6 °C 34533.8 hPa ENE 6 km/h 6 km/h 50 % 0 mm 582.0 W/m2 CLR
14:51 -8.8 °C -14.8 °C 34533.8 hPa ENE 9 km/h   49 % 0 mm 575.0 W/m2 CLR
14:56 -8.8 °C -14.4 °C 34533.8 hPa ENE 15 km/h 15 km/h 51 % 0 mm 568.0 W/m2 CLR
15:01 -8.6 °C -14.4 °C 34533.8 hPa North 11.9 km/h 11.9 km/h 50 % 0 mm 559.0 W/m2 CLR
15:06 -8.6 °C -14.6 °C 34533.8 hPa NE 18.2 km/h 18.2 km/h 49 % 0 mm 548.0 W/m2 CLR
15:11 -8.7 °C -14.8 °C 34533.8 hPa NNE 11.9 km/h 11.9 km/h 48 % 0 mm 540.0 W/m2 CLR
15:16 -8.6 °C -14.6 °C 34520.3 hPa ENE 17.9 km/h 17.9 km/h 49 % 0 mm 529.0 W/m2 CLR
15:21 -8.6 °C -14.7 °C 34520.3 hPa East 18.2 km/h 18.2 km/h 48 % 0 mm 520.0 W/m2 CLR
15:26 -8.7 °C -14.8 °C 34520.3 hPa ENE 18.2 km/h 18.2 km/h 48 % 0 mm 512.0 W/m2 CLR
15:32 -8.7 °C -14.8 °C 34520.3 hPa NE 6 km/h 6 km/h 48 % 0 mm 499.0 W/m2 CLR
15:37 -8.6 °C -14.9 °C 34520.3 hPa ENE 17.9 km/h 17.9 km/h 47 % 0 mm 490.0 W/m2 CLR
15:42 -8.7 °C -14.9 °C 34520.3 hPa ENE 10.3 km/h 10.3 km/h 47 % 0 mm 478.0 W/m2 CLR
15:47 -8.7 °C -15 °C 34510.1 hPa ENE 12.9 km/h 12.9 km/h 47 % 0 mm 466.0 W/m2 CLR
15:52 -8.7 °C -15.2 °C 34510.1 hPa NE 18.2 km/h 18.2 km/h 46 % 0 mm 455.0 W/m2 CLR
15:57 -8.6 °C -15.1 °C 34510.1 hPa NE 15 km/h 15 km/h 46 % 0 mm 445.0 W/m2 CLR
16:02 -8.6 °C -14.9 °C 34510.1 hPa East 9 km/h 9 km/h 47 % 0 mm 432.0 W/m2 CLR
16:07 -8.6 °C -15.1 °C 34510.1 hPa Calm     46 % 0 mm 418.0 W/m2 CLR
16:12 -8.5 °C -14.9 °C 34510.1 hPa NNE 3.1 km/h   46 % 0 mm 406.0 W/m2 CLR
16:17 -8.4 °C -15.3 °C 34510.1 hPa Calm     44 % 0 mm 394.0 W/m2 CLR
16:22 -8.5 °C -14.9 °C 34496.6 hPa Calm     46 % 0 mm 380.0 W/m2 CLR
16:27 -8.4 °C -15.1 °C 34510.1 hPa Calm     45 % 0 mm 369.0 W/m2 CLR
16:32 -8.4 °C -15.4 °C 34496.6 hPa Calm     43 % 0 mm 352.0 W/m2 CLR
16:37 -8.4 °C -15.4 °C 34496.6 hPa Calm     43 % 0 mm 339.0 W/m2 CLR
16:42 -8.4 °C -15.2 °C 34496.6 hPa Calm     44 % 0 mm 327.0 W/m2 CLR
16:47 -8.3 °C -15.2 °C 34496.6 hPa ENE 6 km/h 6 km/h 44 % 0 mm 313.0 W/m2 CLR
16:52 -8.3 °C -15.4 °C 34496.6 hPa Calm     43 % 0 mm 299.0 W/m2 CLR
16:57 -8.2 °C -15.3 °C 34496.6 hPa Calm     43 % 0 mm 281.0 W/m2 CLR
17:02 -8.1 °C -15.2 °C 34496.6 hPa Calm     43 % 0 mm 267.0 W/m2 CLR
17:07 -8 °C -15.3 °C 34496.6 hPa NE 6 km/h   42 % 0 mm 253.0 W/m2 CLR
17:12 -8.1 °C -15.3 °C 34496.6 hPa Calm     42 % 0 mm 236.0 W/m2 CLR
17:17 -8.1 °C -15.2 °C 34496.6 hPa Calm     43 % 0 mm 216.0 W/m2 CLR
17:22 -8.2 °C -15.2 °C 34496.6 hPa Calm     43 % 0 mm 200.0 W/m2 CLR
17:27 -8.2 °C -15.2 °C 34496.6 hPa Calm     43 % 0 mm 181.0 W/m2 CLR
17:32 -8.1 °C -15.2 °C 34496.6 hPa Calm     43 % 0 mm 163.0 W/m2 CLR
17:37 -8.1 °C -15.2 °C 34496.6 hPa Calm     43 % 0 mm 142.0 W/m2 CLR
17:42 -8.1 °C -15.3 °C 34486.4 hPa Calm     42 % 0 mm 127.0 W/m2 CLR
17:47 -8 °C -15.2 °C 34486.4 hPa Calm     42 % 0 mm 111.0 W/m2 CLR
17:52 -7.9 °C -15.2 °C 34486.4 hPa Calm     42 % 0 mm 97.0 W/m2 CLR
17:57 -8.1 °C -15.1 °C 34486.4 hPa Calm     43 % 0 mm 77.0 W/m2 FEW
18:02 -8.2 °C -15.4 °C 34486.4 hPa Calm     42 % 0 mm 60.0 W/m2 FEW
18:07 -8.3 °C -15.5 °C 34486.4 hPa Calm     42 % 0 mm 54.0 W/m2 SCT
18:12 -8.4 °C -15.4 °C 34486.4 hPa Calm     43 % 0 mm 42.0 W/m2 BKN
18:17 -8.4 °C -15.3 °C 34486.4 hPa Calm     44 % 0 mm 28.0 W/m2 BKN
18:22 -8.5 °C -15.5 °C 34486.4 hPa Calm     43 % 0 mm 19.0 W/m2 BKN
18:27 -8.6 °C -15.2 °C 34496.6 hPa Calm     45 % 0 mm 14.0 W/m2 BKN
18:32 -8.7 °C -15.5 °C 34496.6 hPa Calm     44 % 0 mm 12.0 W/m2 BKN
18:37 -8.8 °C -15.6 °C 34496.6 hPa Calm     44 % 0 mm 9.0 W/m2 BKN
18:42 -8.9 °C -15.3 °C 34496.6 hPa Calm     46 % 0 mm 7.0 W/m2 BKN
18:47 -9.1 °C -15.1 °C 34486.4 hPa Calm     49 % 0 mm 5.0 W/m2 OVC
18:52 -9.3 °C -15.1 °C 34486.4 hPa Calm     50 % 0 mm 0.0 W/m2 OVC
18:57 -9.6 °C -14.9 °C 34486.4 hPa Calm     52 % 0 mm 0.0 W/m2 OVC
19:02 -9.8 °C -15 °C 34496.6 hPa Calm     53 % 0 mm 0.0 W/m2 CLR
19:07 -10.1 °C -14.8 °C 34496.6 hPa Calm     56 % 0 mm 0.0 W/m2 CLR
19:12 -10.4 °C -14.9 °C 34496.6 hPa Calm     58 % 0 mm 0.0 W/m2 CLR
19:17 -10.7 °C -14.9 °C 34496.6 hPa Calm     60 % 0 mm 0.0 W/m2 CLR
19:22 -10.9 °C -14.8 °C 34496.6 hPa Calm     62 % 0 mm 0.0 W/m2 CLR
19:27 -11.1 °C -14.9 °C 34496.6 hPa Calm     62 % 0 mm 0.0 W/m2 CLR
19:32 -11.2 °C -15.1 °C 34496.6 hPa Calm     62 % 0 mm 0.0 W/m2 CLR
19:33 -11.2 °C -15.1 °C 34496.6 hPa Calm     62 % 0 mm 0.0 W/m2 CLR
19:38 -11.4 °C -15.1 °C 34510.1 hPa Calm     64 % 0 mm 0.0 W/m2 CLR
19:43 -11.7 °C -15.1 °C 34510.1 hPa Calm     66 % 0 mm 0.0 W/m2 CLR
19:48 -11.9 °C -15.1 °C 34510.1 hPa Calm     68 % 0 mm 0.0 W/m2 CLR
19:53 -12.1 °C -15.2 °C 34510.1 hPa Calm     69 % 0 mm 0.0 W/m2 CLR
19:58 -12.3 °C -15.1 °C 34510.1 hPa Calm     71 % 0 mm 0.0 W/m2 CLR
20:03 -12.4 °C -15.1 °C 34510.1 hPa Calm     72 % 0 mm 0.0 W/m2 CLR
20:08 -12.5 °C -15.2 °C 34510.1 hPa Calm     72 % 0 mm 0.0 W/m2 CLR
20:13 -12.6 °C -15.2 °C 34510.1 hPa Calm     73 % 0 mm 0.0 W/m2 CLR
20:14 -12.6 °C -15.2 °C 34510.1 hPa Calm     73 % 0 mm 0.0 W/m2 CLR
20:19 -12.7 °C -15.3 °C 34510.1 hPa Calm     73 % 0 mm 0.0 W/m2 CLR
20:24 -12.9 °C -15.3 °C 34510.1 hPa Calm     74 % 0 mm 0.0 W/m2 CLR
20:29 -13 °C -15.3 °C 34510.1 hPa Calm     75 % 0 mm 0.0 W/m2 CLR
20:34 -13.2 °C -15.4 °C 34510.1 hPa Calm     76 % 0 mm 0.0 W/m2 CLR
20:39 -13.4 °C -15.4 °C 34510.1 hPa Calm     77 % 0 mm 0.0 W/m2 CLR
20:44 -13.4 °C -15.4 °C 34510.1 hPa Calm     78 % 0 mm 0.0 W/m2 CLR
20:49 -13.5 °C -15.4 °C 34510.1 hPa Calm     79 % 0 mm 0.0 W/m2 CLR
20:54 -13.6 °C -15.4 °C 34510.1 hPa Calm     79 % 0 mm 0.0 W/m2 CLR
20:59 -13.6 °C -15.4 °C 34510.1 hPa Calm     80 % 0 mm 0.0 W/m2 CLR
21:04 -13.7 °C -15.4 °C 34510.1 hPa Calm     80 % 0 mm 0.0 W/m2 CLR
21:09 -13.8 °C -15.6 °C 34496.6 hPa Calm     80 % 0 mm 0.0 W/m2 CLR
21:14 -13.8 °C -15.6 °C 34510.1 hPa Calm     81 % 0 mm 0.0 W/m2 CLR
21:19 -13.9 °C -15.6 °C 34510.1 hPa Calm     81 % 0 mm 0.0 W/m2 CLR
21:24 -13.9 °C -15.6 °C 34510.1 hPa Calm     82 % 0 mm 0.0 W/m2 CLR
21:29 -14 °C -15.6 °C 34510.1 hPa Calm     82 % 0 mm 0.0 W/m2 CLR
21:34 -14 °C -15.6 °C 34510.1 hPa Calm     82 % 0 mm 0.0 W/m2 CLR
21:39 -14 °C -15.6 °C 34510.1 hPa Calm     82 % 0 mm 0.0 W/m2 CLR
21:44 -14.1 °C -15.6 °C 34510.1 hPa Calm     83 % 0 mm 0.0 W/m2 CLR
21:49 -14.2 °C -15.7 °C 34510.1 hPa Calm     83 % 0 mm 0.0 W/m2 CLR
21:54 -14.3 °C -15.7 °C 34510.1 hPa Calm     83 % 0 mm 0.0 W/m2 CLR
21:59 -14.3 °C -15.7 °C 34496.6 hPa Calm     84 % 0 mm 0.0 W/m2 CLR
22:04 -14.3 °C -15.7 °C 34510.1 hPa Calm     84 % 0 mm 0.0 W/m2 CLR
22:09 -14.3 °C -15.7 °C 34510.1 hPa Calm     84 % 0 mm 0.0 W/m2 CLR
22:14 -14.4 °C -15.8 °C 34496.6 hPa Calm     84 % 0 mm 0.0 W/m2 CLR
22:19 -14.5 °C -15.9 °C 34510.1 hPa Calm     84 % 0 mm 0.0 W/m2 CLR
22:24 -14.6 °C -15.9 °C 34496.6 hPa Calm     84 % 0 mm 0.0 W/m2 CLR
22:25 -14.6 °C -15.9 °C 34496.6 hPa Calm     84 % 0 mm 0.0 W/m2 CLR
22:30 -14.6 °C -15.9 °C 34496.6 hPa Calm     85 % 0 mm 0.0 W/m2 CLR
22:35 -14.7 °C -16 °C 34510.1 hPa Calm     85 % 0 mm 0.0 W/m2 CLR
22:40 -14.8 °C -16.1 °C 34496.6 hPa Calm     85 % 0 mm 0.0 W/m2 CLR
22:45 -14.8 °C -16.1 °C 34496.6 hPa Calm     85 % 0 mm 0.0 W/m2 CLR
22:50 -14.8 °C -16.1 °C 34496.6 hPa Calm     86 % 0 mm 0.0 W/m2 CLR
22:55 -14.9 °C -16.1 °C 34496.6 hPa Calm     86 % 0 mm 0.0 W/m2 CLR
23:00 -14.9 °C -16.1 °C 34496.6 hPa Calm     86 % 0 mm 0.0 W/m2 CLR
23:05 -14.9 °C -16.2 °C 34496.6 hPa Calm     86 % 0 mm 0.0 W/m2 CLR
23:10 -15 °C -16.2 °C 34496.6 hPa Calm     86 % 0 mm 0.0 W/m2 CLR
23:15 -15.1 °C -16.3 °C 34496.6 hPa Calm     86 % 0 mm 0.0 W/m2 CLR
23:20 -15.1 °C -16.2 °C 34496.6 hPa Calm     87 % 0 mm 0.0 W/m2 CLR
23:25 -15.2 °C -16.3 °C 34496.6 hPa Calm     87 % 0 mm 0.0 W/m2 CLR
23:30 -15.2 °C -16.3 °C 34496.6 hPa Calm     87 % 0 mm 0.0 W/m2 CLR
23:35 -15.2 °C -16.3 °C 34510.1 hPa Calm     87 % 0 mm 0.0 W/m2 CLR
23:40 -15.3 °C -16.4 °C 34510.1 hPa Calm     87 % 0 mm 0.0 W/m2 CLR
23:45 -15.3 °C -16.3 °C 34510.1 hPa Calm     88 % 0 mm 0.0 W/m2 CLR
23:50 -15.3 °C -16.3 °C 34510.1 hPa Calm     88 % 0 mm 0.0 W/m2 CLR
23:55 -15.3 °C -16.2 °C 34510.1 hPa Calm     89 % 0 mm 0.0 W/m2 CLR
Lo Temps de Massalio
Compliments of Weather Underground - 1.25 mb